createdAt,value
2018-05-23T00:00:02.133Z,6.20
2018-05-23T00:02:29.698Z,6.37
2018-05-23T00:04:57.237Z,6.87
2018-05-23T00:07:24.861Z,6.97
2018-05-23T00:09:52.399Z,6.60
2018-05-23T00:12:19.941Z,6.83
2018-05-23T00:14:48.211Z,7.17
2018-05-23T00:17:16.775Z,7.47
2018-05-23T00:19:44.339Z,7.07
2018-05-23T00:22:11.856Z,7.00
2018-05-23T00:24:39.402Z,7.50
2018-05-23T00:27:07.028Z,6.70
2018-05-23T00:29:34.556Z,7.17
2018-05-23T00:32:02.144Z,7.53
2018-05-23T00:34:29.683Z,7.53
2018-05-23T00:36:57.252Z,7.20
2018-05-23T00:39:24.750Z,7.23
2018-05-23T00:41:52.303Z,7.10
2018-05-23T00:44:19.844Z,6.77
2018-05-23T00:46:47.393Z,7.13
2018-05-23T00:49:14.958Z,6.83
2018-05-23T00:51:42.488Z,7.30
2018-05-23T00:54:10.262Z,7.43
2018-05-23T00:56:38.682Z,7.80
2018-05-23T00:59:06.296Z,7.40
2018-05-23T01:01:34.029Z,7.67
2018-05-23T01:04:01.581Z,7.83
2018-05-23T01:06:29.155Z,7.20
2018-05-23T01:08:56.707Z,7.60
2018-05-23T01:11:24.254Z,6.93
2018-05-23T01:13:51.887Z,7.10
2018-05-23T01:16:19.474Z,7.27
2018-05-23T01:18:47.007Z,6.83
2018-05-23T01:21:14.662Z,7.67
2018-05-23T01:23:42.211Z,6.87
2018-05-23T01:26:09.864Z,6.70
2018-05-23T01:28:37.414Z,6.50
2018-05-23T01:31:05.234Z,6.70
2018-05-23T01:33:32.755Z,6.10
2018-05-23T01:36:00.306Z,6.30
2018-05-23T01:38:27.880Z,5.93
2018-05-23T01:40:55.448Z,6.60
2018-05-23T01:43:23.005Z,5.93
2018-05-23T01:45:50.544Z,6.73
2018-05-23T01:48:18.121Z,7.10
2018-05-23T01:50:45.650Z,6.50
2018-05-23T01:53:13.206Z,6.77
2018-05-23T01:55:40.872Z,6.33
2018-05-23T01:58:08.641Z,6.93
2018-05-23T02:00:36.175Z,7.10
2018-05-23T02:03:03.742Z,7.77
2018-05-23T02:05:31.296Z,7.20
2018-05-23T02:07:58.911Z,8.00
2018-05-23T02:10:26.457Z,8.43
2018-05-23T02:12:54.070Z,8.17
2018-05-23T02:15:21.609Z,8.53
2018-05-23T02:20:39.733Z,8.20
2018-05-23T02:23:07.329Z,7.60
2018-05-23T02:25:34.883Z,7.90
2018-05-23T02:28:02.503Z,8.67
2018-05-23T02:30:30.086Z,8.40
2018-05-23T02:32:57.936Z,7.93
2018-05-23T02:35:25.480Z,8.37
2018-05-23T02:37:53.075Z,8.07
2018-05-23T02:40:20.622Z,7.80
2018-05-23T02:42:48.328Z,7.90
2018-05-23T02:45:15.859Z,8.70
2018-05-23T02:47:43.527Z,8.60
2018-05-23T02:50:11.159Z,9.10
2018-05-23T02:52:38.737Z,9.70
2018-05-23T02:55:06.294Z,9.07
2018-05-23T02:57:33.840Z,9.07
2018-05-23T03:00:01.523Z,8.70
2018-05-23T03:02:29.184Z,8.00
2018-05-23T03:04:56.706Z,8.30
2018-05-23T03:07:24.541Z,7.57
2018-05-23T03:09:52.130Z,6.83
2018-05-23T03:12:19.693Z,8.03
2018-05-23T03:14:47.238Z,7.50
2018-05-23T03:17:14.825Z,7.17
2018-05-23T03:19:42.405Z,7.67
2018-05-23T03:22:09.951Z,7.47
2018-05-23T03:24:37.608Z,7.10
2018-05-23T03:27:05.514Z,7.23
2018-05-23T03:29:33.155Z,7.40
2018-05-23T03:32:01.248Z,7.27
2018-05-23T03:34:28.995Z,7.80
2018-05-23T03:36:56.548Z,6.77
2018-05-23T03:39:24.131Z,6.63
2018-05-23T03:41:51.656Z,6.57
2018-05-23T03:44:19.209Z,7.73
2018-05-23T03:46:47.471Z,6.97
2018-05-23T03:49:15.036Z,6.13
2018-05-23T03:51:42.595Z,7.20
2018-05-23T03:54:10.505Z,6.60
2018-05-23T03:56:38.076Z,7.17
2018-05-23T03:59:05.801Z,7.90
2018-05-23T04:01:45.359Z,8.07
2018-05-23T04:04:24.628Z,8.90
2018-05-23T04:07:03.848Z,8.50
2018-05-23T04:09:33.508Z,9.60
2018-05-23T04:12:01.082Z,9.83
2018-05-23T04:14:28.628Z,10.47
2018-05-23T04:16:56.224Z,9.67
2018-05-23T04:19:23.788Z,10.07
2018-05-23T04:21:51.939Z,9.37
2018-05-23T04:24:19.496Z,9.53
2018-05-23T04:26:48.057Z,9.83
2018-05-23T04:29:15.634Z,8.70
2018-05-23T04:31:43.210Z,8.93
2018-05-23T04:34:10.740Z,7.90
2018-05-23T04:36:38.311Z,7.77
2018-05-23T04:39:06.894Z,7.80
2018-05-23T04:41:34.460Z,7.43
2018-05-23T04:44:02.051Z,7.27
2018-05-23T04:46:29.634Z,6.63
2018-05-23T04:48:57.196Z,7.20
2018-05-23T04:51:24.915Z,7.00
2018-05-23T04:53:52.475Z,6.90
2018-05-23T04:56:20.017Z,6.70
2018-05-23T04:58:47.806Z,7.13
2018-05-23T05:01:15.363Z,6.97
2018-05-23T05:03:42.896Z,8.30
2018-05-23T05:06:10.586Z,7.23
2018-05-23T05:08:38.357Z,7.30
2018-05-23T05:11:06.095Z,8.37
2018-05-23T05:13:33.704Z,7.60
2018-05-23T05:16:01.245Z,7.03
2018-05-23T05:18:28.807Z,7.80
2018-05-23T05:20:56.371Z,7.40
2018-05-23T05:23:23.934Z,7.37
2018-05-23T05:25:51.454Z,7.30
2018-05-23T05:28:19.204Z,7.33
2018-05-23T05:30:46.735Z,7.30
2018-05-23T05:33:14.293Z,7.37
2018-05-23T05:35:41.847Z,7.40
2018-05-23T05:38:09.421Z,7.77
2018-05-23T05:40:36.967Z,7.43
2018-05-23T05:43:04.542Z,8.07
2018-05-23T05:45:32.107Z,7.60
2018-05-23T05:47:59.734Z,7.20
2018-05-23T05:50:27.290Z,7.17
2018-05-23T05:52:54.863Z,7.43
2018-05-23T05:55:22.454Z,7.40
2018-05-23T05:57:49.999Z,6.50
2018-05-23T06:00:17.683Z,7.67
2018-05-23T06:02:45.238Z,9.20
2018-05-23T06:05:13.290Z,16.13
2018-05-23T06:07:40.830Z,8.27
2018-05-23T06:10:08.416Z,8.00
2018-05-23T06:12:35.971Z,8.00
2018-05-23T06:15:03.577Z,11.43
2018-05-23T06:17:31.145Z,7.47
2018-05-23T06:19:58.686Z,7.37
2018-05-23T06:22:26.301Z,7.37
2018-05-23T06:24:54.120Z,7.13
2018-05-23T06:27:21.651Z,7.93
2018-05-23T06:29:49.290Z,7.53
2018-05-23T06:32:17.919Z,7.40
2018-05-23T06:34:45.585Z,7.37
2018-05-23T06:37:13.121Z,7.03
2018-05-23T06:39:40.763Z,7.73
2018-05-23T06:42:08.309Z,13.33
2018-05-23T06:44:35.942Z,7.43
2018-05-23T06:47:03.510Z,19.93
2018-05-23T06:49:31.149Z,7.87
2018-05-23T06:51:58.680Z,7.50
2018-05-23T06:54:26.471Z,7.90
2018-05-23T06:56:54.165Z,8.23
2018-05-23T06:59:21.912Z,8.33
2018-05-23T07:01:49.666Z,8.17
2018-05-23T07:04:17.243Z,8.30
2018-05-23T07:06:44.883Z,8.70
2018-05-23T07:09:13.182Z,8.13
2018-05-23T07:11:40.743Z,8.13
2018-05-23T07:14:08.367Z,8.10
2018-05-23T07:16:36.044Z,8.23
2018-05-23T07:19:03.648Z,7.43
2018-05-23T07:21:31.187Z,8.37
2018-05-23T07:23:59.706Z,8.20
2018-05-23T07:26:27.405Z,7.77
2018-05-23T07:28:54.937Z,7.77
2018-05-23T07:31:23.488Z,9.00
2018-05-23T07:33:51.016Z,8.27
2018-05-23T07:36:19.593Z,7.97
2018-05-23T07:38:47.149Z,8.27
2018-05-23T07:41:14.715Z,8.20
2018-05-23T07:43:42.263Z,9.00
2018-05-23T07:46:10.477Z,8.03
2018-05-23T07:48:39.033Z,7.50
2018-05-23T07:51:06.694Z,7.73
2018-05-23T07:53:34.349Z,7.07
2018-05-23T07:56:01.912Z,7.70
2018-05-23T07:58:29.463Z,7.60
2018-05-23T08:00:56.969Z,6.93
2018-05-23T08:03:24.579Z,7.80
2018-05-23T08:05:52.099Z,7.93
2018-05-23T08:08:19.620Z,7.60
2018-05-23T08:10:47.223Z,7.60
2018-05-23T08:13:14.758Z,8.80
2018-05-23T08:15:42.315Z,8.47
2018-05-23T08:18:10.093Z,8.83
2018-05-23T08:20:37.713Z,8.83
2018-05-23T08:23:05.226Z,9.27
2018-05-23T08:25:33.566Z,8.20
2018-05-23T08:28:01.148Z,8.30
2018-05-23T08:30:28.750Z,7.70
2018-05-23T08:32:56.293Z,8.10
2018-05-23T08:35:23.986Z,7.47
2018-05-23T08:37:51.598Z,7.63
2018-05-23T08:40:19.139Z,8.53
2018-05-23T08:42:46.671Z,8.27
2018-05-23T08:45:14.388Z,10.37
2018-05-23T08:47:42.088Z,9.97
2018-05-23T08:50:09.683Z,10.33
2018-05-23T08:52:37.316Z,10.40
2018-05-23T08:55:05.288Z,10.87
2018-05-23T08:57:33.875Z,10.50
2018-05-23T09:00:01.538Z,10.57
2018-05-23T09:02:29.080Z,13.27
2018-05-23T09:04:56.639Z,12.07
2018-05-23T09:07:25.257Z,12.90
2018-05-23T09:09:52.714Z,10.93
2018-05-23T09:12:20.479Z,57.50
2018-05-23T09:14:48.031Z,12.13
2018-05-23T09:17:15.734Z,12.53
2018-05-23T09:19:43.280Z,11.83
2018-05-23T09:22:10.826Z,12.13
2018-05-23T09:24:38.380Z,13.13
2018-05-23T09:27:06.012Z,13.87
2018-05-23T09:29:33.664Z,13.77
2018-05-23T09:32:01.449Z,12.73
2018-05-23T09:34:29.102Z,10.03
2018-05-23T09:36:56.626Z,10.00
2018-05-23T09:39:24.298Z,13.27
2018-05-23T09:41:51.969Z,13.73
2018-05-23T09:44:19.530Z,12.83
2018-05-23T09:46:47.292Z,12.33
2018-05-23T09:49:14.884Z,12.23
2018-05-23T09:51:42.430Z,13.43
2018-05-23T09:54:09.973Z,13.23
2018-05-23T09:56:37.650Z,13.80
2018-05-23T09:59:05.267Z,14.00
2018-05-23T10:01:33.197Z,13.83
2018-05-23T10:04:00.696Z,13.60
2018-05-23T10:06:28.468Z,13.13
2018-05-23T10:08:56.101Z,13.10
2018-05-23T10:11:23.727Z,13.13
2018-05-23T10:13:51.388Z,13.30
2018-05-23T10:16:19.055Z,13.17
2018-05-23T10:18:46.602Z,13.83
2018-05-23T10:21:14.141Z,13.23
2018-05-23T10:23:41.685Z,13.00
2018-05-23T10:26:09.213Z,13.83
2018-05-23T10:28:36.777Z,14.63
2018-05-23T10:31:04.312Z,14.30
2018-05-23T10:33:31.916Z,17.00
2018-05-23T10:35:59.469Z,15.23
2018-05-23T10:38:27.004Z,14.87
2018-05-23T10:40:54.531Z,15.50
2018-05-23T10:43:22.080Z,13.70
2018-05-23T10:45:49.664Z,14.50
2018-05-23T10:48:17.199Z,14.93
2018-05-23T10:50:44.781Z,15.53
2018-05-23T10:53:12.387Z,16.40
2018-05-23T10:55:40.002Z,16.80
2018-05-23T10:58:07.551Z,13.70
2018-05-23T11:00:35.225Z,16.10
2018-05-23T11:03:02.906Z,15.60
2018-05-23T11:05:30.387Z,14.68
2018-05-23T11:07:57.925Z,15.48
2018-05-23T11:10:25.668Z,14.65
2018-05-23T11:12:53.328Z,15.90
2018-05-23T11:15:20.980Z,14.32
2018-05-23T11:17:48.465Z,15.57
2018-05-23T11:20:16.019Z,12.60
2018-05-23T11:22:43.871Z,13.55
2018-05-23T11:25:11.525Z,14.95
2018-05-23T11:27:39.197Z,13.88
2018-05-23T11:30:07.103Z,11.63
2018-05-23T11:32:34.887Z,11.60
2018-05-23T11:35:02.486Z,11.20
2018-05-23T11:37:30.049Z,10.23
2018-05-23T11:39:57.689Z,10.00
2018-05-23T11:42:25.224Z,8.70
2018-05-23T11:44:53.332Z,9.15
2018-05-23T11:47:20.874Z,8.75
2018-05-23T11:49:48.425Z,7.03
2018-05-23T11:52:16.015Z,10.25
2018-05-23T11:54:43.651Z,8.75
2018-05-23T11:57:11.121Z,10.45
2018-05-23T11:59:38.798Z,10.13
2018-05-23T12:02:06.363Z,11.77
2018-05-23T12:04:33.909Z,11.35
2018-05-23T12:07:01.452Z,10.00
2018-05-23T12:09:29.000Z,9.25
2018-05-23T12:11:56.594Z,8.38
2018-05-23T12:14:24.157Z,9.18
2018-05-23T12:16:51.793Z,8.57
2018-05-23T12:19:19.860Z,7.32
2018-05-23T12:21:47.406Z,7.22
2018-05-23T12:24:15.063Z,7.53
2018-05-23T12:26:42.588Z,6.80
2018-05-23T12:29:10.135Z,5.25
2018-05-23T12:31:37.642Z,5.95
2018-05-23T12:34:05.173Z,7.03
2018-05-23T12:36:32.814Z,5.57
2018-05-23T12:39:00.441Z,4.82
2018-05-23T12:41:28.013Z,4.60
2018-05-23T12:43:55.540Z,5.10
2018-05-23T12:46:23.325Z,5.70
2018-05-23T12:48:50.837Z,6.43
2018-05-23T12:51:18.381Z,5.10
2018-05-23T12:53:46.226Z,5.37
2018-05-23T12:56:13.872Z,7.28
2018-05-23T12:58:41.451Z,7.25
2018-05-23T13:01:09.497Z,6.95
2018-05-23T13:03:37.049Z,6.60
2018-05-23T13:06:04.653Z,5.62
2018-05-23T13:08:32.213Z,4.87
2018-05-23T13:10:59.873Z,5.70
2018-05-23T13:13:27.462Z,5.50
2018-05-23T13:15:55.166Z,5.28
2018-05-23T13:18:22.972Z,5.20
2018-05-23T13:20:50.507Z,5.55
2018-05-23T13:23:18.045Z,6.55
2018-05-23T13:25:45.783Z,8.18
2018-05-23T13:28:13.454Z,7.10
2018-05-23T13:30:41.046Z,6.80
2018-05-23T13:33:08.598Z,7.18
2018-05-23T13:35:36.147Z,5.95
2018-05-23T13:38:03.716Z,5.80
2018-05-23T13:40:32.004Z,4.40
2018-05-23T13:42:59.594Z,5.05
2018-05-23T13:45:27.175Z,4.43
2018-05-23T13:47:55.269Z,5.60
2018-05-23T13:50:22.847Z,5.57
2018-05-23T13:52:50.428Z,4.40
2018-05-23T13:55:18.060Z,3.97
2018-05-23T13:57:45.631Z,3.47
2018-05-23T14:00:13.223Z,4.72
2018-05-23T14:02:40.816Z,4.40
2018-05-23T14:05:08.345Z,4.65
2018-05-23T14:07:35.884Z,4.25
2018-05-23T14:10:03.537Z,4.37
2018-05-23T14:12:31.714Z,4.10
2018-05-23T14:14:59.247Z,5.12
2018-05-23T14:17:26.796Z,4.60
2018-05-23T14:19:54.352Z,4.62
2018-05-23T14:22:21.924Z,5.28
2018-05-23T14:24:49.459Z,4.70
2018-05-23T14:27:17.010Z,5.45
2018-05-23T14:29:44.579Z,6.28
2018-05-23T14:32:12.104Z,4.45
2018-05-23T14:34:39.660Z,6.00
2018-05-23T14:37:07.215Z,5.53
2018-05-23T14:39:34.803Z,5.03
2018-05-23T14:42:02.515Z,4.60
2018-05-23T14:44:30.104Z,5.05
2018-05-23T14:46:57.648Z,4.00
2018-05-23T14:49:25.300Z,3.87
2018-05-23T14:51:52.965Z,5.90
2018-05-23T14:54:20.499Z,5.22
2018-05-23T14:56:48.066Z,5.12
2018-05-23T14:59:15.637Z,9.25
2018-05-23T15:01:43.383Z,5.10
2018-05-23T15:04:10.926Z,5.72
2018-05-23T15:06:38.549Z,5.50
2018-05-23T15:09:06.112Z,5.95
2018-05-23T15:11:33.774Z,6.70
2018-05-23T15:14:01.299Z,8.98
2018-05-23T15:16:28.837Z,5.72
2018-05-23T15:18:56.396Z,4.00
2018-05-23T15:21:23.943Z,5.45
2018-05-23T15:23:51.492Z,4.95
2018-05-23T15:26:19.435Z,5.50
2018-05-23T15:28:47.008Z,6.97
2018-05-23T15:31:14.648Z,5.30
2018-05-23T15:33:42.155Z,6.12
2018-05-23T15:36:09.730Z,5.37
2018-05-23T15:38:37.317Z,5.10
2018-05-23T15:41:04.847Z,4.90
2018-05-23T15:43:32.408Z,6.32
2018-05-23T15:45:59.990Z,6.03
2018-05-23T15:48:27.501Z,6.50
2018-05-23T15:50:55.101Z,6.35
2018-05-23T15:53:22.707Z,5.28
2018-05-23T15:55:50.279Z,4.40
2018-05-23T15:58:17.818Z,4.57
2018-05-23T16:00:45.605Z,4.80
2018-05-23T16:03:13.168Z,4.68
2018-05-23T16:05:40.727Z,4.20
2018-05-23T16:08:08.510Z,4.12
2018-05-23T16:10:36.219Z,4.78
2018-05-23T16:13:03.768Z,4.47
2018-05-23T16:15:31.307Z,4.53
2018-05-23T16:17:58.854Z,6.40
2018-05-23T16:20:26.381Z,4.55
2018-05-23T16:22:53.985Z,4.85
2018-05-23T16:25:21.585Z,5.70
2018-05-23T16:27:49.387Z,6.12
2018-05-23T16:30:17.014Z,5.97
2018-05-23T16:32:44.569Z,5.72
2018-05-23T16:35:12.111Z,5.65
2018-05-23T16:37:39.680Z,5.57
2018-05-23T16:40:07.240Z,6.25
2018-05-23T16:42:34.842Z,5.75
2018-05-23T16:45:02.403Z,5.25
2018-05-23T16:47:29.962Z,5.62
2018-05-23T16:49:57.503Z,6.40
2018-05-23T16:52:25.082Z,5.30
2018-05-23T16:54:52.596Z,5.45
2018-05-23T16:57:20.194Z,6.70
2018-05-23T16:59:47.744Z,5.50
2018-05-23T17:02:15.444Z,7.60
2018-05-23T17:04:42.998Z,6.55
2018-05-23T17:07:11.166Z,6.32
2018-05-23T17:09:38.765Z,5.68
2018-05-23T17:12:06.414Z,5.12
2018-05-23T17:14:33.991Z,5.72
2018-05-23T17:17:01.511Z,5.70
2018-05-23T17:19:29.072Z,9.07
2018-05-23T17:21:56.601Z,5.90
2018-05-23T17:24:24.145Z,5.60
2018-05-23T17:26:51.671Z,5.07
2018-05-23T17:29:19.311Z,5.37
2018-05-23T17:31:46.849Z,5.43
2018-05-23T17:34:14.472Z,5.00
2018-05-23T17:36:42.032Z,5.45
2018-05-23T17:39:09.568Z,5.07
2018-05-23T17:41:37.220Z,6.12
2018-05-23T17:44:04.811Z,12.63
2018-05-23T17:46:32.392Z,7.95
2018-05-23T17:48:59.937Z,5.00
2018-05-23T17:51:27.452Z,5.55
2018-05-23T17:53:54.988Z,5.20
2018-05-23T17:56:22.521Z,5.68
2018-05-23T17:58:50.073Z,5.60
2018-05-23T18:01:17.696Z,5.78
2018-05-23T18:03:45.216Z,6.00
2018-05-23T18:06:12.887Z,5.70
2018-05-23T18:08:40.361Z,5.73
2018-05-23T18:11:07.913Z,5.63
2018-05-23T18:13:35.431Z,5.00
2018-05-23T18:16:02.970Z,5.10
2018-05-23T18:18:30.517Z,5.00
2018-05-23T18:20:58.066Z,4.60
2018-05-23T18:23:25.781Z,4.80
2018-05-23T18:25:53.286Z,4.80
2018-05-23T18:28:20.925Z,4.57
2018-05-23T18:30:48.488Z,4.50
2018-05-23T18:33:16.097Z,4.77
2018-05-23T18:35:44.111Z,4.27
2018-05-23T18:38:11.669Z,4.43
2018-05-23T18:40:39.203Z,4.70
2018-05-23T18:43:06.760Z,4.40
2018-05-23T18:45:34.311Z,4.60
2018-05-23T18:48:01.893Z,4.40
2018-05-23T18:50:29.517Z,4.70
2018-05-23T18:52:57.044Z,5.00
2018-05-23T18:55:24.600Z,5.07
2018-05-23T18:57:52.147Z,5.03
2018-05-23T19:00:19.711Z,5.43
2018-05-23T19:02:47.460Z,5.10
2018-05-23T19:05:15.092Z,4.60
2018-05-23T19:07:42.574Z,4.63
2018-05-23T19:10:10.182Z,4.93
2018-05-23T19:12:37.717Z,5.00
2018-05-23T19:15:05.494Z,5.13
2018-05-23T19:17:33.065Z,4.60
2018-05-23T19:20:00.697Z,4.90
2018-05-23T19:22:28.270Z,5.50
2018-05-23T19:24:55.914Z,5.50
2018-05-23T19:27:23.487Z,5.40
2018-05-23T19:29:51.041Z,5.20
2018-05-23T19:32:18.592Z,6.07
2018-05-23T19:34:46.141Z,5.80
2018-05-23T19:37:14.269Z,5.93
2018-05-23T19:39:41.882Z,6.90
2018-05-23T19:42:09.388Z,5.77
2018-05-23T19:44:37.058Z,5.90
2018-05-23T19:47:04.599Z,6.13
2018-05-23T19:49:32.147Z,5.90
2018-05-23T19:52:00.149Z,6.40
2018-05-23T19:54:27.696Z,6.13
2018-05-23T19:56:55.231Z,5.47
2018-05-23T19:59:22.765Z,5.87
2018-05-23T20:01:50.479Z,6.43
2018-05-23T20:04:18.108Z,6.17
2018-05-23T20:06:45.627Z,6.50
2018-05-23T20:09:13.164Z,6.63
2018-05-23T20:11:40.683Z,6.77
2018-05-23T20:14:08.346Z,7.10
2018-05-23T20:16:35.950Z,6.87
2018-05-23T20:19:03.514Z,6.63
2018-05-23T20:21:31.084Z,6.17
2018-05-23T20:23:59.244Z,6.20
2018-05-23T20:26:26.764Z,6.17
2018-05-23T20:28:54.292Z,6.83
2018-05-23T20:31:21.807Z,6.30
2018-05-23T20:33:49.339Z,6.83
2018-05-23T20:36:16.855Z,7.53
2018-05-23T20:38:44.384Z,6.77
2018-05-23T20:41:11.908Z,7.07
2018-05-23T20:43:39.445Z,7.10
2018-05-23T20:46:07.011Z,6.67
2018-05-23T20:48:34.584Z,7.03
2018-05-23T20:51:02.144Z,6.40
2018-05-23T20:53:29.691Z,7.97
2018-05-23T20:55:57.215Z,8.40
2018-05-23T20:58:24.799Z,7.73
2018-05-23T21:00:52.434Z,6.70
2018-05-23T21:03:19.977Z,7.03
2018-05-23T21:05:47.728Z,7.20
2018-05-23T21:08:15.180Z,7.60
2018-05-23T21:10:43.291Z,7.73
2018-05-23T21:13:10.845Z,7.87
2018-05-23T21:15:38.621Z,8.40
2018-05-23T21:18:06.188Z,7.70
2018-05-23T21:20:33.766Z,7.93
2018-05-23T21:23:01.285Z,7.60
2018-05-23T21:25:28.855Z,8.47
2018-05-23T21:27:56.800Z,8.30
2018-05-23T21:30:24.312Z,8.37
2018-05-23T21:32:51.858Z,7.67
2018-05-23T21:35:19.417Z,8.60
2018-05-23T21:37:46.955Z,8.13
2018-05-23T21:40:14.927Z,8.47
2018-05-23T21:42:42.602Z,8.77
2018-05-23T21:45:10.153Z,8.37
2018-05-23T21:47:37.682Z,8.47
2018-05-23T21:50:05.283Z,8.60
2018-05-23T21:52:32.808Z,9.87
2018-05-23T21:55:00.383Z,8.97
2018-05-23T21:57:27.957Z,8.87
2018-05-23T21:59:55.454Z,8.70
2018-05-23T22:02:22.983Z,8.73
2018-05-23T22:04:50.544Z,9.33
2018-05-23T22:07:18.077Z,8.70
2018-05-23T22:09:45.658Z,9.07
2018-05-23T22:12:13.315Z,8.90
2018-05-23T22:14:40.801Z,9.27
2018-05-23T22:17:08.362Z,8.70
2018-05-23T22:19:35.909Z,8.97
2018-05-23T22:22:03.415Z,8.90
2018-05-23T22:24:30.969Z,8.63
2018-05-23T22:26:58.533Z,9.37
2018-05-23T22:29:26.071Z,9.53
2018-05-23T22:31:53.654Z,9.40
2018-05-23T22:34:21.456Z,10.13
2018-05-23T22:36:49.021Z,10.17
2018-05-23T22:39:16.597Z,10.43
2018-05-23T22:41:44.149Z,9.90
2018-05-23T22:44:11.696Z,10.10
2018-05-23T22:46:39.273Z,9.00
2018-05-23T22:49:06.924Z,9.60
2018-05-23T22:51:34.462Z,9.20
2018-05-23T22:54:02.333Z,10.13
2018-05-23T22:56:29.884Z,10.13
2018-05-23T22:58:57.415Z,10.40
2018-05-23T23:01:25.010Z,9.67
2018-05-23T23:03:52.586Z,10.50
2018-05-23T23:06:20.151Z,10.43
2018-05-23T23:08:47.703Z,10.73
2018-05-23T23:11:15.266Z,10.97
2018-05-23T23:13:42.827Z,10.67
2018-05-23T23:16:10.381Z,11.57
2018-05-23T23:18:37.977Z,12.50
2018-05-23T23:21:05.719Z,11.00
2018-05-23T23:23:33.282Z,11.33
2018-05-23T23:26:00.841Z,10.67
2018-05-23T23:28:28.409Z,11.20
2018-05-23T23:30:55.969Z,11.37
2018-05-23T23:33:23.530Z,12.07
2018-05-23T23:35:51.106Z,11.67
2018-05-23T23:38:18.635Z,11.53
2018-05-23T23:40:46.182Z,11.40
2018-05-23T23:43:13.739Z,10.40
2018-05-23T23:45:41.306Z,11.40
2018-05-23T23:48:08.865Z,10.80
2018-05-23T23:50:36.415Z,11.50
2018-05-23T23:53:04.017Z,11.30
2018-05-23T23:55:31.570Z,11.40
2018-05-23T23:57:59.129Z,11.77
